Flight Track Log - Related Links

Times and Time Zones

All times are in EDT time to prevent confusion due to time zone crossing. See the EJA922 flight status page for this flight to view local times or setup timezone preferences in your user account.

Time Position Orientation Groundspeed Altitude Reporting Facility
EDT Latitude Longitude Course Direction KTS MPH feet Rate Location/Type
Thu 05:34:08 PM 44.8500 -93.2333 182° South 186 214 2,300  Level Minneapolis TRACON
Thu 05:34:39 PM 44.8322 -93.2342 182° South 204 235 3,400 3,032 Climbing Minneapolis Center
Thu 05:35:41 PM 44.7667 -93.3039 217° Southwest 253 291 7,000 2,419 Climbing Minneapolis Center
Thu 05:36:43 PM 44.7069 -93.3636 215° Southwest 270 311 8,400 2,226 Climbing Minneapolis Center
Thu 05:37:45 PM 44.6439 -93.4242 214° Southwest 276 318 11,600 2,516 Climbing Minneapolis Center
Thu 05:38:47 PM 44.5764 -93.5086 222° Southwest 330 380 13,600 2,226 Climbing Minneapolis Center
Thu 05:39:49 PM 44.5011 -93.6014 221° Southwest 360 414 16,200 2,855 Climbing Minneapolis Center
Thu 05:40:51 PM 44.4031 -93.7050 217° Southwest 368 423 19,500 2,544 Climbing Minneapolis Center
Thu 05:41:54 PM 44.3053 -93.7619 203° Southwest 380 437 21,500 1,824 Climbing Minneapolis Center
Thu 05:42:56 PM 44.2033 -93.8242 204° Southwest 395 455 23,300 1,887 Climbing Minneapolis Center
Thu 05:43:58 PM 44.0975 -93.8894 204° Southwest 412 474 25,400 1,871 Climbing Minneapolis Center
Thu 05:45:00 PM 43.9942 -93.9526 207° Southwest  Level Estimated
Thu 05:46:02 PM 43.8650 -94.0317 207° Southwest 429 494 29,100  Level Minneapolis Center
Thu 05:47:04 PM 43.7461 -94.1036 204° Southwest 441 507 30,800 2,032 Climbing Minneapolis Center
Thu 05:48:06 PM 43.6308 -94.1733 204° Southwest 449 517 33,300 2,661 Climbing Minneapolis Center
Thu 05:49:08 PM 43.5222 -94.2386 204° Southwest 443 510 36,300 2,806 Climbing Minneapolis Center
Thu 05:50:10 PM 43.4153 -94.3028 204° Southwest 430 495 39,100 1,790 Climbing Minneapolis Center
Thu 05:51:12 PM 43.2875 -94.3783 203° Southwest 420 483 40,000 432 Climbing Minneapolis Center
Thu 05:52:15 PM 43.1731 -94.4453 203° Southwest 435 501 40,000  Level Minneapolis Center
Thu 05:53:17 PM 43.0561 -94.5158 204° Southwest 453 521 40,000  Level Minneapolis Center
Thu 05:54:19 PM 42.9453 -94.5806 203° Southwest 454 522 40,000  Level Minneapolis Center
Thu 05:55:21 PM 42.8261 -94.6508 203° Southwest 447 514 40,000  Level Minneapolis Center
Thu 05:56:23 PM 42.7125 -94.7172 203° Southwest 445 512 40,000  Level Minneapolis Center
Thu 05:57:25 PM 42.5783 -94.7944 203° Southwest 438 504 40,000  Level Minneapolis Center
Thu 05:58:27 PM 42.4667 -94.8603 204° Southwest 437 503 40,000  Level Minneapolis Center
Thu 05:59:29 PM 42.3542 -94.9244 203° Southwest 438 504 40,000  Level Minneapolis Center
Thu 06:00:31 PM 42.2444 -94.9867 203° Southwest 431 496 40,000  Level Minneapolis Center
Thu 06:01:33 PM 42.1342 -95.0494 203° Southwest 430 495 40,000  Level Minneapolis Center
Thu 06:02:35 PM 42.0253 -95.1128 203° Southwest 427 491 40,000  Level Minneapolis Center
Thu 06:03:38 PM 41.9103 -95.1772 203° Southwest 426 490 40,000  Level Minneapolis Center
Thu 06:04:40 PM 41.8019 -95.2378 203° Southwest 425 489 40,000  Level Minneapolis Center
Thu 06:05:42 PM 41.6706 -95.3117 203° Southwest 428 493 40,000  Level Minneapolis Center
Thu 06:06:44 PM 41.5611 -95.3728 203° Southwest 430 495 40,000  Level Minneapolis Center
Thu 06:07:46 PM 41.4500 -95.4350 203° Southwest 435 501 40,000  Level Minneapolis Center
Thu 06:08:48 PM 41.3386 -95.4972 203° Southwest 438 504 40,000  Level Minneapolis Center
Thu 06:09:50 PM 41.2253 -95.5597 203° Southwest 439 505 40,000  Level Minneapolis Center
Thu 06:10:52 PM 41.0911 -95.6339 203° Southwest 441 507 40,000  Level Minneapolis Center
Thu 06:11:54 PM 40.9789 -95.6967 203° Southwest 438 504 40,000  Level Minneapolis Center
Thu 06:12:56 PM 40.8633 -95.7594 202° Southwest 441 507 40,000  Level Minneapolis Center
Thu 06:13:59 PM 40.7486 -95.8222 203° Southwest 444 511 40,000  Level Minneapolis Center
Thu 06:15:01 PM 40.6333 -95.8839 202° Southwest 444 511 40,000  Level Minneapolis Center
Thu 06:16:03 PM 40.4978 -95.9589 203° Southwest 443 510 40,000 -145 Level Minneapolis Center
Thu 06:17:05 PM 40.3850 -96.0189 202° Southwest 439 505 39,700 -435 Descending Minneapolis Center
Thu 06:18:07 PM 40.2708 -96.0817 203° Southwest 440 506 39,100 -726 Descending Minneapolis Center
Thu 06:19:09 PM 40.1544 -96.1442 202° Southwest 446 513 38,200 -906 Descending Minneapolis Center
Thu 06:19:53 PM 40.0786 -96.1864 203° Southwest 445 512 37,500 -686 Descending Kansas City Center
Thu 06:20:54 PM 39.9456 -96.2456 199° South 447 514 37,000 -443 Descending Kansas City Center
Thu 06:21:55 PM 39.8253 -96.2947 197° South 451 519 36,600 -677 Descending Kansas City Center
Thu 06:22:58 PM 39.7031 -96.3469 198° South 451 519 35,600 -968 Descending Kansas City Center
Thu 06:23:59 PM 39.5850 -96.3964 198° South 463 533 34,600 -1,056 Descending Kansas City Center
Thu 06:25:03 PM 39.4481 -96.4553 198° South 474 545 33,400 -1,248 Descending Kansas City Center
Thu 06:26:04 PM 39.3233 -96.5050 197° South 478 550 32,000 -1,512 Descending Kansas City Center
Thu 06:27:06 PM 39.1814 -96.5650 198° South 481 554 30,300 -1,536 Descending Kansas City Center
Thu 06:28:09 PM 39.0578 -96.6156 198° South 485 558 28,800 -1,500 Descending Kansas City Center
Thu 06:29:10 PM 38.9372 -96.6667 198° South 480 552 27,200 -1,790 Descending Kansas City Center
Thu 06:30:13 PM 38.7856 -96.7269 197° South 476 548 25,100 -1,984 Descending Kansas City Center
Thu 06:31:14 PM 38.6625 -96.7778 198° South 459 528 23,100 -2,000 Descending Kansas City Center
Thu 06:32:16 PM 38.5481 -96.8244 198° South 443 510 21,000 -2,243 Descending Kansas City Center
Thu 06:33:01 PM 38.4544 -96.8622 198° South 427 491 19,100 -2,156 Descending Kansas City Center
Thu 06:33:20 PM 38.4358 -96.8700 198° South 426 490 18,700 -2,571 Descending Kansas City Center
Thu 06:33:50 PM 38.3697 -96.8975 198° South 411 473 17,000 -2,967 Descending Kansas City Center
Thu 06:34:51 PM 38.2625 -96.9389 197° South 405 466 14,200 -2,489 Descending Kansas City Center
Thu 06:35:24 PM 38.2197 -96.9572 199° South 405 466 13,100 -2,754 Descending Kansas City Center
Thu 06:35:52 PM 38.1558 -96.9856 199° South 400 460 11,400 -2,656 Descending Kansas City Center
Thu 06:36:25 PM 38.1203 -97.0092 208° Southwest 379 436 10,400 -1,377 Descending Kansas City Center
Thu 06:36:53 PM 38.0711 -97.0444 209° Southwest 336 387 10,000 -787 Descending Kansas City Center
Thu 06:37:26 PM 38.0269 -97.0769 210° Southwest 303 349 9,600 -889 Descending Kansas City Center
Thu 06:37:47 PM 38.0067 -97.0919 210° Southwest 270 311 9,200 -1,313 Descending Kansas City Center
Thu 06:38:30 PM 37.9647 -97.1264 213° Southwest 270 311 8,200 -1,433 Descending Kansas City Center
Thu 06:38:54 PM 37.9394 -97.1558 223° Southwest 255 293 7,600 -1,475 Descending Kansas City Center
Thu 06:39:31 PM 37.9106 -97.1881 221° Southwest 261 300 6,700 -1,418 Descending Kansas City Center
Thu 06:39:49 PM 37.8939 -97.2056 220° Southwest 258 297 6,300 -1,377 Descending Kansas City Center
Thu 06:40:32 PM 37.8575 -97.2492 223° Southwest 257 296 5,300 -1,377 Descending Kansas City Center
Thu 06:40:50 PM 37.8375 -97.2728 223° Southwest 256 295 4,900 -938 Descending Kansas City Center
Thu 06:41:36 PM 37.8081 -97.3111 226° Southwest 252 290 4,300 -885 Descending Kansas City Center
Thu 06:41:51 PM 37.7908 -97.3331 225° Southwest 241 277 4,000 -787 Descending Kansas City Center
Thu 06:42:37 PM 37.7617 -97.3672 223° Southwest 243 280 3,500 -724 Descending Kansas City Center
Thu 06:42:49 PM 37.7433 -97.3828 214° Southwest 215 247 3,300 -762 Descending Kansas City Center
Thu 06:43:40 PM 37.7108 -97.3961 198° South 218 251 2,700 -984 Descending Kansas City Center
Thu 06:43:50 PM 37.6928 -97.4039 199° South 185 213 2,300 -1,180 Descending Kansas City Center
Thu 06:44:41 PM 37.6644 -97.4156 198° South 195 224 1,500 -941 Descending Kansas City Center
Thu 06:46:00 PM 37.6499 -97.4331 202° Southwest  Level Estimated
Thu 06:53:00 PM 37.6499 -97.4331 202° Southwest  Level Estimated

Login

Don't have an account? Register now (free) for customized features, flight alerts, and more!